Terminal Aerodrome Forecast
Issued by NWS

Home | Current Version | Previous Version | Graphics & Text | Print | Product List | Glossary On
Versions: 1 2 3 4 5 6 7 8 9 10 11 12 13 14 15 16 17 18 19 20 21 22
402
FTUS45 KGGW 221720
TAFGDV
TAF
KGDV 221720Z 2218/2318 VRB04KT P6SM FEW110
     FM222000 29007KT P6SM FEW130
     FM230200 34007KT P6SM SKC
     FM231000 01007KT P6SM BKN070 PROB30 2312/2318 4SM -RA OVC025=

USA.gov is the U.S. government's official web portal to all federal, state and local government web resources and services.